createdAt,value
2022-10-07T00:02:35.321Z,2.05
2022-10-07T00:07:37.074Z,4.90
2022-10-07T00:12:38.901Z,1.50
2022-10-07T00:17:40.857Z,2.40
2022-10-07T00:22:42.809Z,3.47
2022-10-07T00:27:44.704Z,1.40
2022-10-07T00:32:46.704Z,2.67
2022-10-07T00:37:49.811Z,1.73
2022-10-07T00:42:52.919Z,1.60
2022-10-07T00:47:54.475Z,1.55
2022-10-07T00:53:02.761Z,2.28
2022-10-07T00:58:09.679Z,1.67
2022-10-07T01:03:11.759Z,1.85
2022-10-07T01:08:15.656Z,3.05
2022-10-07T01:13:28.284Z,1.60
2022-10-07T01:19:02.112Z,3.08
2022-10-07T01:24:39.011Z,3.38
2022-10-07T01:30:04.072Z,7.78
2022-10-07T01:35:10.283Z,1.83
2022-10-07T01:40:18.464Z,2.65
2022-10-07T01:45:22.238Z,3.75
2022-10-07T01:50:27.626Z,2.22
2022-10-07T01:55:55.761Z,7.95
2022-10-07T02:01:42.570Z,3.45
2022-10-07T02:07:18.878Z,2.20
2022-10-07T02:12:40.900Z,4.30
2022-10-07T02:17:50.870Z,3.10
2022-10-07T02:27:57.713Z,2.97
2022-10-07T02:33:04.546Z,2.38
2022-10-07T02:38:11.200Z,2.63
2022-10-07T02:43:29.122Z,6.18
2022-10-07T02:48:37.345Z,2.40
2022-10-07T02:53:40.956Z,2.53
2022-10-07T02:58:45.918Z,2.60
2022-10-07T03:03:49.255Z,2.50
2022-10-07T03:08:52.709Z,3.83
2022-10-07T03:13:54.831Z,3.35
2022-10-07T03:18:56.471Z,3.15
2022-10-07T03:24:04.765Z,2.67
2022-10-07T03:29:11.867Z,3.47
2022-10-07T03:34:14.265Z,3.45
2022-10-07T03:39:18.524Z,2.40
2022-10-07T03:44:20.637Z,2.63
2022-10-07T03:49:22.239Z,4.35
2022-10-07T03:54:24.317Z,2.97
2022-10-07T03:59:26.120Z,2.42
2022-10-07T04:04:28.578Z,2.85
2022-10-07T04:09:30.280Z,2.50
2022-10-07T04:14:31.892Z,3.78
2022-10-07T04:19:33.745Z,5.15
2022-10-07T04:24:37.101Z,5.50
2022-10-07T04:29:39.378Z,4.03
2022-10-07T04:34:41.851Z,2.72
2022-10-07T04:40:00.266Z,4.70
2022-10-07T04:45:07.953Z,2.60
2022-10-07T04:50:10.857Z,3.00
2022-10-07T04:55:14.239Z,8.13
2022-10-07T05:00:17.199Z,6.47
2022-10-07T05:05:18.831Z,2.55
2022-10-07T05:10:21.745Z,4.40
2022-10-07T05:15:23.587Z,2.42
2022-10-07T05:20:26.683Z,2.20
2022-10-07T05:25:29.412Z,4.63
2022-10-07T05:30:31.352Z,3.72
2022-10-07T05:35:33.971Z,3.55
2022-10-07T05:40:36.077Z,4.68
2022-10-07T05:45:38.076Z,3.25
2022-10-07T05:50:39.895Z,5.03
2022-10-07T05:55:42.054Z,3.70
2022-10-07T06:00:52.358Z,3.50
2022-10-07T06:05:55.328Z,3.97
2022-10-07T06:11:23.111Z,3.92
2022-10-07T06:16:26.706Z,3.70
2022-10-07T06:21:28.567Z,3.17
2022-10-07T06:26:35.021Z,4.38
2022-10-07T06:31:37.391Z,3.42
2022-10-07T06:36:39.792Z,2.60
2022-10-07T06:41:41.378Z,4.95
2022-10-07T06:47:15.653Z,2.53
2022-10-07T06:52:19.273Z,3.20
2022-10-07T06:57:44.375Z,3.60
2022-10-07T07:02:44.832Z,4.97
2022-10-07T07:07:46.938Z,4.30
2022-10-07T07:12:49.254Z,3.55
2022-10-07T07:17:51.900Z,4.03
2022-10-07T07:22:54.845Z,9.75
2022-10-07T07:27:58.685Z,3.92
2022-10-07T07:33:00.705Z,3.40
2022-10-07T07:38:02.448Z,5.20
2022-10-07T07:43:05.972Z,3.10
2022-10-07T07:48:08.215Z,3.28
2022-10-07T07:53:10.985Z,3.25
2022-10-07T07:58:12.850Z,3.90
2022-10-07T08:03:15.890Z,2.70
2022-10-07T08:08:17.788Z,3.20
2022-10-07T08:13:19.809Z,3.58
2022-10-07T08:18:21.802Z,2.88
2022-10-07T08:23:26.496Z,4.03
2022-10-07T08:28:28.588Z,3.80
2022-10-07T08:33:34.604Z,3.17
2022-10-07T08:38:38.501Z,5.13
2022-10-07T08:43:45.192Z,2.78
2022-10-07T08:49:05.413Z,2.38
2022-10-07T08:54:13.823Z,2.40
2022-10-07T08:59:32.051Z,1.65
2022-10-07T09:04:58.561Z,2.25
2022-10-07T09:10:32.930Z,2.50
2022-10-07T09:15:41.310Z,2.55
2022-10-07T09:20:46.981Z,2.92
2022-10-07T09:25:48.710Z,2.05
2022-10-07T09:30:50.355Z,2.63
2022-10-07T09:35:58.076Z,2.33
2022-10-07T09:41:16.296Z,1.50
2022-10-07T09:46:31.445Z,2.30
2022-10-07T09:51:35.236Z,2.92
2022-10-07T09:56:43.001Z,1.80
2022-10-07T10:01:57.031Z,2.22
2022-10-07T10:07:05.717Z,1.83
2022-10-07T10:12:13.453Z,2.30
2022-10-07T10:17:32.045Z,3.97
2022-10-07T10:22:33.637Z,2.47
2022-10-07T10:27:48.507Z,2.10
2022-10-07T10:33:15.071Z,4.60
2022-10-07T10:38:49.839Z,1.85
2022-10-07T10:44:03.513Z,4.00
2022-10-07T10:49:19.735Z,2.00
2022-10-07T10:54:35.344Z,1.40
2022-10-07T10:59:40.736Z,1.40
2022-10-07T11:05:06.712Z,5.15
2022-10-07T11:10:24.549Z,1.50
2022-10-07T11:15:41.701Z,2.58
2022-10-07T11:20:48.021Z,4.60
2022-10-07T11:25:58.509Z,2.80
2022-10-07T11:31:03.846Z,2.30
2022-10-07T11:36:16.095Z,2.03
2022-10-07T11:41:33.714Z,4.40
2022-10-07T11:46:40.647Z,1.30
2022-10-07T11:52:00.487Z,1.70
2022-10-07T12:02:38.722Z,1.35
2022-10-07T12:07:45.030Z,4.55
2022-10-07T12:12:53.714Z,1.52
2022-10-07T12:18:17.425Z,3.35
2022-10-07T12:23:23.968Z,3.03
2022-10-07T12:28:48.852Z,3.13
2022-10-07T12:33:58.866Z,1.85
2022-10-07T12:39:03.234Z,2.55
2022-10-07T12:44:31.814Z,2.75
2022-10-07T12:49:42.551Z,1.45
2022-10-07T12:54:56.641Z,3.38
2022-10-07T13:00:16.940Z,4.38
2022-10-07T13:05:57.959Z,1.75
2022-10-07T13:11:33.573Z,1.33
2022-10-07T13:16:47.686Z,1.83
2022-10-07T13:22:19.634Z,3.47
2022-10-07T13:27:27.489Z,5.32
2022-10-07T13:32:32.452Z,3.00
2022-10-07T13:37:37.914Z,2.08
2022-10-07T13:42:41.284Z,1.15
2022-10-07T13:47:50.042Z,3.00
2022-10-07T13:52:54.805Z,2.80
2022-10-07T13:58:00.623Z,2.17
2022-10-07T14:03:13.603Z,1.40
2022-10-07T14:08:25.048Z,1.73
2022-10-07T14:13:31.998Z,2.47
2022-10-07T14:18:43.983Z,4.00
2022-10-07T14:23:49.326Z,1.60
2022-10-07T14:28:52.530Z,1.55
2022-10-07T14:34:19.546Z,1.77
2022-10-07T14:39:23.857Z,1.95
2022-10-07T14:44:26.145Z,2.00
2022-10-07T14:49:28.343Z,2.80
2022-10-07T14:54:31.054Z,1.80
2022-10-07T14:59:34.258Z,2.38
2022-10-07T15:04:36.885Z,2.55
2022-10-07T15:09:40.092Z,1.65
2022-10-07T15:14:42.381Z,3.15
2022-10-07T15:19:44.205Z,2.08
2022-10-07T15:24:46.068Z,2.00
2022-10-07T15:29:48.288Z,2.53
2022-10-07T15:34:55.597Z,2.13
2022-10-07T15:39:58.820Z,2.53
2022-10-07T15:45:00.684Z,1.48
2022-10-07T15:50:02.827Z,2.05
2022-10-07T15:55:07.927Z,3.42
2022-10-07T16:00:12.389Z,2.22
2022-10-07T16:05:14.950Z,1.70
2022-10-07T16:10:16.765Z,2.90
2022-10-07T16:15:18.701Z,2.63
2022-10-07T16:20:22.413Z,1.55
2022-10-07T16:25:25.757Z,3.28
2022-10-07T16:30:44.308Z,2.03
2022-10-07T16:35:46.554Z,4.13
2022-10-07T16:40:52.907Z,2.53
2022-10-07T16:46:01.812Z,5.88
2022-10-07T16:51:04.164Z,2.90
2022-10-07T16:56:11.850Z,2.70
2022-10-07T17:01:17.069Z,1.92
2022-10-07T17:06:21.082Z,2.08
2022-10-07T17:11:32.946Z,2.28
2022-10-07T17:16:38.002Z,2.97
2022-10-07T17:21:42.421Z,3.20
2022-10-07T17:26:45.359Z,3.40
2022-10-07T17:31:51.662Z,5.10
2022-10-07T17:36:54.350Z,4.45
2022-10-07T17:41:59.638Z,4.72
2022-10-07T17:47:03.796Z,3.38
2022-10-07T17:52:05.889Z,5.65
2022-10-07T17:57:07.536Z,3.00
2022-10-07T18:02:10.747Z,2.78
2022-10-07T18:07:15.620Z,3.35
2022-10-07T18:12:36.343Z,3.97
2022-10-07T18:17:38.544Z,4.15
2022-10-07T18:22:40.173Z,4.50
2022-10-07T18:27:43.728Z,9.43
2022-10-07T18:32:45.612Z,8.77
2022-10-07T18:37:47.795Z,5.32
2022-10-07T18:42:50.263Z,5.78
2022-10-07T18:47:51.883Z,8.05
2022-10-07T18:52:54.253Z,4.85
2022-10-07T18:57:56.064Z,7.57
2022-10-07T19:02:57.947Z,4.82
2022-10-07T19:07:59.591Z,5.18
2022-10-07T19:13:20.858Z,5.10
2022-10-07T19:18:25.156Z,4.15
2022-10-07T19:23:28.425Z,4.32
2022-10-07T19:28:31.003Z,5.50
2022-10-07T19:33:34.299Z,4.97
2022-10-07T19:38:39.343Z,6.78
2022-10-07T19:43:42.936Z,7.30
2022-10-07T19:48:45.613Z,7.35
2022-10-07T19:53:48.324Z,11.50
2022-10-07T19:58:53.487Z,13.55
2022-10-07T20:04:06.627Z,10.45
2022-10-07T20:09:12.857Z,9.65
2022-10-07T20:14:16.516Z,10.73
2022-10-07T20:19:19.823Z,10.57
2022-10-07T20:24:21.636Z,9.73
2022-10-07T20:29:25.506Z,10.77
2022-10-07T20:34:27.825Z,15.20
2022-10-07T20:39:48.117Z,11.65
2022-10-07T20:44:50.923Z,10.32
2022-10-07T20:49:55.631Z,11.65
2022-10-07T20:54:57.537Z,15.23
2022-10-07T20:59:59.560Z,11.80
2022-10-07T21:05:01.995Z,12.27
2022-10-07T21:10:05.517Z,13.07
2022-10-07T21:15:07.645Z,13.50
2022-10-07T21:20:10.166Z,14.80
2022-10-07T21:25:13.100Z,13.00
2022-10-07T21:30:14.888Z,15.57
2022-10-07T21:35:18.170Z,15.98
2022-10-07T21:40:20.369Z,15.45
2022-10-07T21:45:22.225Z,13.93
2022-10-07T21:50:23.821Z,13.82
2022-10-07T21:55:26.245Z,19.85
2022-10-07T22:00:28.047Z,16.90
2022-10-07T22:05:33.786Z,14.65
2022-10-07T22:10:36.469Z,16.58
2022-10-07T22:15:40.228Z,16.92
2022-10-07T22:20:42.717Z,17.80
2022-10-07T22:25:44.527Z,16.80
2022-10-07T22:30:46.427Z,15.48
2022-10-07T22:35:48.036Z,14.82
2022-10-07T22:40:50.429Z,12.30
2022-10-07T22:45:59.226Z,15.20
2022-10-07T22:51:07.614Z,15.00
2022-10-07T22:56:17.802Z,17.45
2022-10-07T23:01:20.281Z,17.20
2022-10-07T23:06:22.917Z,18.90
2022-10-07T23:11:26.288Z,17.35
2022-10-07T23:16:30.314Z,18.88
2022-10-07T23:21:35.757Z,16.45
2022-10-07T23:26:38.289Z,18.98
2022-10-07T23:31:40.478Z,18.80
2022-10-07T23:36:42.844Z,17.33
2022-10-07T23:41:44.460Z,21.98
2022-10-07T23:46:47.966Z,15.85
2022-10-07T23:51:50.029Z,21.08
2022-10-07T23:56:52.423Z,19.23
